createdAt,value
2019-02-04T00:01:22.644Z,55.70
2019-02-04T00:03:51.192Z,55.70
2019-02-04T00:06:19.719Z,56.00
2019-02-04T00:08:46.722Z,56.00
2019-02-04T00:11:14.140Z,55.90
2019-02-04T00:13:41.246Z,55.70
2019-02-04T00:16:09.755Z,55.80
2019-02-04T00:18:36.830Z,55.90
2019-02-04T00:21:05.235Z,56.10
2019-02-04T00:23:32.415Z,56.10
2019-02-04T00:25:59.571Z,56.10
2019-02-04T00:28:26.672Z,55.90
2019-02-04T00:30:53.782Z,55.90
2019-02-04T00:33:20.940Z,55.90
2019-02-04T00:35:48.100Z,56.00
2019-02-04T00:38:15.352Z,56.10
2019-02-04T00:40:42.501Z,55.90
2019-02-04T00:43:09.599Z,55.90
2019-02-04T00:45:36.718Z,55.90
2019-02-04T00:48:04.028Z,55.80
2019-02-04T00:50:31.205Z,55.90
2019-02-04T00:52:58.424Z,56.00
2019-02-04T00:55:25.824Z,56.00
2019-02-04T00:57:52.930Z,56.10
2019-02-04T01:00:23.050Z,56.20
2019-02-04T01:02:50.360Z,56.20
2019-02-04T01:05:17.952Z,56.40
2019-02-04T01:07:45.781Z,56.30
2019-02-04T01:10:13.941Z,56.20
2019-02-04T01:12:41.053Z,56.20
2019-02-04T01:15:08.188Z,56.30
2019-02-04T01:17:35.421Z,56.30
2019-02-04T01:20:03.096Z,56.40
2019-02-04T01:22:30.356Z,56.40
2019-02-04T01:24:57.448Z,56.40
2019-02-04T01:27:24.997Z,56.20
2019-02-04T01:29:52.170Z,56.20
2019-02-04T01:32:19.257Z,56.30
2019-02-04T01:34:48.880Z,56.40
2019-02-04T01:37:15.395Z,56.40
2019-02-04T01:39:42.599Z,56.40
2019-02-04T01:42:09.692Z,56.40
2019-02-04T01:44:37.084Z,56.40
2019-02-04T01:47:14.172Z,56.40
2019-02-04T01:49:33.352Z,56.40
2019-02-04T01:52:00.473Z,56.40
2019-02-04T01:54:27.499Z,56.40
2019-02-04T01:56:54.588Z,56.40
2019-02-04T01:59:21.697Z,56.40
2019-02-04T02:01:49.131Z,56.30
2019-02-04T02:04:18.016Z,56.10
2019-02-04T02:06:45.205Z,56.20
2019-02-04T02:09:23.637Z,56.20
2019-02-04T02:11:50.780Z,56.00
2019-02-04T02:14:18.283Z,56.00
2019-02-04T02:16:45.371Z,56.20
2019-02-04T02:19:12.485Z,56.60
2019-02-04T02:21:39.688Z,56.50
2019-02-04T02:24:06.821Z,56.50
2019-02-04T02:26:33.960Z,56.60
2019-02-04T02:29:01.073Z,56.30
2019-02-04T02:31:28.689Z,56.50
2019-02-04T02:33:55.780Z,56.40
2019-02-04T02:36:22.896Z,56.50
2019-02-04T02:38:50.023Z,56.60
2019-02-04T02:41:17.137Z,56.60
2019-02-04T02:43:44.455Z,56.60
2019-02-04T02:46:11.589Z,56.70
2019-02-04T02:48:38.713Z,56.60
2019-02-04T02:51:05.734Z,56.60
2019-02-04T02:53:32.906Z,56.60
2019-02-04T02:56:00.024Z,56.60
2019-02-04T02:58:27.132Z,56.60
2019-02-04T03:00:54.255Z,56.60
2019-02-04T03:03:21.355Z,56.80
2019-02-04T03:05:48.551Z,56.90
2019-02-04T03:08:16.270Z,57.00
2019-02-04T03:10:43.340Z,57.10
2019-02-04T03:13:10.488Z,57.00
2019-02-04T03:15:37.800Z,57.00
2019-02-04T03:18:04.977Z,57.10
2019-02-04T03:20:32.319Z,57.10
2019-02-04T03:22:59.469Z,57.00
2019-02-04T03:25:29.255Z,57.00
2019-02-04T03:27:59.204Z,57.10
2019-02-04T03:30:27.832Z,57.00
2019-02-04T03:32:54.949Z,57.00
2019-02-04T03:35:22.083Z,56.90
2019-02-04T03:37:52.106Z,56.90
2019-02-04T03:40:19.105Z,56.90
2019-02-04T03:42:46.354Z,56.90
2019-02-04T03:45:13.575Z,56.80
2019-02-04T03:47:40.676Z,56.90
2019-02-04T03:50:08.663Z,56.90
2019-02-04T03:52:35.822Z,57.00
2019-02-04T03:55:03.414Z,56.90
2019-02-04T03:57:30.614Z,56.80
2019-02-04T03:59:57.825Z,56.80
2019-02-04T04:02:25.092Z,56.80
2019-02-04T04:04:52.242Z,56.70
2019-02-04T04:07:19.408Z,56.80
2019-02-04T04:09:46.616Z,57.70
2019-02-04T04:12:14.237Z,57.30
2019-02-04T04:14:41.295Z,57.40
2019-02-04T04:17:08.544Z,57.30
2019-02-04T04:19:35.773Z,57.30
2019-02-04T04:22:04.699Z,57.20
2019-02-04T04:24:31.841Z,57.20
2019-02-04T04:26:59.024Z,57.20
2019-02-04T04:29:26.433Z,57.20
2019-02-04T04:31:53.541Z,57.30
2019-02-04T04:34:20.704Z,57.40
2019-02-04T04:36:47.884Z,58.30
2019-02-04T04:39:15.032Z,57.60
2019-02-04T04:41:44.996Z,57.30
2019-02-04T04:44:12.215Z,57.30
2019-02-04T04:46:42.556Z,57.20
2019-02-04T04:49:09.928Z,57.10
2019-02-04T04:51:37.041Z,57.10
2019-02-04T04:54:04.160Z,57.00
2019-02-04T04:56:31.316Z,57.00
2019-02-04T04:58:58.437Z,56.90
2019-02-04T05:01:25.600Z,57.20
2019-02-04T05:03:52.952Z,57.20
2019-02-04T05:06:20.108Z,57.20
2019-02-04T05:08:47.276Z,57.70
2019-02-04T05:11:14.497Z,57.20
2019-02-04T05:13:41.612Z,57.20
2019-02-04T05:16:09.519Z,57.30
2019-02-04T05:18:38.437Z,56.90
2019-02-04T05:21:05.897Z,56.80
2019-02-04T05:23:33.008Z,56.60
2019-02-04T05:26:00.124Z,56.40
2019-02-04T05:28:27.260Z,56.40
2019-02-04T05:30:54.382Z,56.40
2019-02-04T05:33:21.462Z,56.20
2019-02-04T05:35:50.149Z,56.30
2019-02-04T05:38:17.288Z,56.40
2019-02-04T05:40:44.436Z,56.60
2019-02-04T05:43:11.665Z,56.40
2019-02-04T05:45:38.873Z,56.50
2019-02-04T05:48:06.059Z,56.60
2019-02-04T05:50:33.237Z,56.60
2019-02-04T05:53:00.375Z,56.80
2019-02-04T05:55:27.460Z,56.90
2019-02-04T05:57:54.666Z,57.10
2019-02-04T06:00:27.509Z,57.10
2019-02-04T06:02:54.672Z,57.10
2019-02-04T06:05:21.781Z,57.90
2019-02-04T06:07:50.217Z,57.20
2019-02-04T06:10:17.772Z,57.10
2019-02-04T06:12:46.077Z,57.30
2019-02-04T06:15:13.248Z,57.20
2019-02-04T06:17:40.424Z,57.30
2019-02-04T06:20:08.865Z,57.20
2019-02-04T06:22:35.957Z,57.20
2019-02-04T06:25:03.378Z,57.20
2019-02-04T06:27:30.711Z,57.20
2019-02-04T06:29:57.801Z,57.20
2019-02-04T06:32:28.071Z,57.30
2019-02-04T06:34:55.198Z,57.40
2019-02-04T06:37:22.340Z,57.20
2019-02-04T06:39:49.449Z,57.30
2019-02-04T06:42:16.789Z,57.30
2019-02-04T06:44:43.994Z,58.00
2019-02-04T06:47:11.472Z,57.20
2019-02-04T06:49:38.688Z,57.10
2019-02-04T06:52:05.767Z,57.20
2019-02-04T06:54:32.887Z,57.10
2019-02-04T06:56:59.984Z,57.20
2019-02-04T06:59:27.065Z,57.10
2019-02-04T07:01:54.179Z,57.00
2019-02-04T07:04:21.296Z,56.90
2019-02-04T07:06:48.376Z,56.80
2019-02-04T07:09:15.567Z,56.80
2019-02-04T07:11:42.700Z,56.90
2019-02-04T07:14:09.789Z,56.90
2019-02-04T07:16:36.909Z,56.60
2019-02-04T07:19:04.347Z,56.70
2019-02-04T07:21:32.545Z,56.90
2019-02-04T07:23:59.793Z,56.90
2019-02-04T07:26:27.528Z,57.00
2019-02-04T07:28:54.640Z,57.10
2019-02-04T07:31:21.776Z,57.00
2019-02-04T07:33:48.974Z,57.20
2019-02-04T07:36:16.461Z,57.30
2019-02-04T07:38:43.609Z,57.20
2019-02-04T07:41:10.721Z,57.30
2019-02-04T07:43:37.856Z,57.50
2019-02-04T07:46:05.019Z,57.50
2019-02-04T07:48:32.189Z,57.50
2019-02-04T07:50:59.372Z,57.50
2019-02-04T07:53:26.461Z,57.40
2019-02-04T07:55:53.547Z,57.50
2019-02-04T07:58:22.671Z,57.50
2019-02-04T08:00:49.792Z,57.50
2019-02-04T08:03:16.893Z,57.50
2019-02-04T08:05:44.092Z,57.60
2019-02-04T08:08:11.104Z,57.50
2019-02-04T08:10:38.393Z,57.80
2019-02-04T08:13:05.797Z,57.70
2019-02-04T08:15:34.057Z,58.00
2019-02-04T08:18:01.365Z,58.20
2019-02-04T08:20:28.600Z,58.40
2019-02-04T08:23:08.645Z,58.60
2019-02-04T08:25:36.269Z,58.60
2019-02-04T08:28:03.424Z,58.80
2019-02-04T08:30:31.393Z,59.00
2019-02-04T08:32:58.636Z,58.90
2019-02-04T08:35:25.825Z,59.10
2019-02-04T08:37:53.058Z,59.30
2019-02-04T08:40:20.212Z,59.50
2019-02-04T08:42:47.314Z,59.90
2019-02-04T08:45:14.901Z,60.00
2019-02-04T08:47:42.260Z,60.10
2019-02-04T08:50:11.520Z,60.20
2019-02-04T08:52:38.752Z,60.00
2019-02-04T08:55:06.325Z,60.10
2019-02-04T08:57:33.512Z,59.90
2019-02-04T09:00:00.700Z,59.80
2019-02-04T09:02:29.513Z,59.70
2019-02-04T09:04:56.716Z,59.50
2019-02-04T09:07:23.903Z,59.40
2019-02-04T09:09:51.058Z,58.70
2019-02-04T09:12:18.173Z,58.20
2019-02-04T09:14:45.316Z,58.00
2019-02-04T09:17:12.512Z,58.30
2019-02-04T09:19:39.760Z,57.10
2019-02-04T09:22:07.208Z,56.70
2019-02-04T09:24:34.310Z,56.80
2019-02-04T09:27:02.308Z,57.50
2019-02-04T09:29:29.484Z,56.40
2019-02-04T09:31:57.708Z,56.10
2019-02-04T09:34:24.845Z,55.90
2019-02-04T09:36:51.917Z,55.90
2019-02-04T09:39:23.584Z,55.80
2019-02-04T09:41:50.703Z,55.60
2019-02-04T09:44:17.839Z,55.70
2019-02-04T09:46:46.741Z,55.40
2019-02-04T09:49:14.111Z,54.80
2019-02-04T09:51:41.353Z,54.60
2019-02-04T09:54:08.704Z,54.70
2019-02-04T09:56:36.204Z,54.70
2019-02-04T09:59:03.348Z,54.90
2019-02-04T10:01:30.506Z,55.10
2019-02-04T10:03:57.652Z,55.80
2019-02-04T10:06:24.819Z,54.00
2019-02-04T10:08:51.936Z,53.40
2019-02-04T10:11:19.423Z,53.00
2019-02-04T10:13:46.883Z,51.20
2019-02-04T10:16:14.013Z,51.60
2019-02-04T10:18:41.214Z,51.70
2019-02-04T10:21:08.531Z,51.40
2019-02-04T10:23:35.811Z,50.30
2019-02-04T10:26:02.983Z,49.10
2019-02-04T10:28:34.083Z,48.40
2019-02-04T10:31:01.167Z,51.10
2019-02-04T10:33:29.746Z,50.80
2019-02-04T10:35:57.021Z,49.70
2019-02-04T10:38:24.234Z,50.50
2019-02-04T10:40:51.440Z,49.30
2019-02-04T10:43:18.814Z,49.40
2019-02-04T10:45:46.082Z,48.70
2019-02-04T10:48:13.430Z,48.70
2019-02-04T10:50:46.345Z,49.40
2019-02-04T10:53:09.945Z,49.90
2019-02-04T10:55:37.083Z,50.00
2019-02-04T10:58:04.936Z,49.90
2019-02-04T11:00:32.666Z,50.20
2019-02-04T11:02:59.963Z,48.70
2019-02-04T11:05:28.112Z,48.40
2019-02-04T11:07:55.398Z,48.60
2019-02-04T11:10:25.399Z,46.10
2019-02-04T11:12:53.075Z,47.70
2019-02-04T11:15:20.312Z,46.20
2019-02-04T11:17:47.543Z,47.60
2019-02-04T11:20:20.212Z,45.80
2019-02-04T11:22:47.275Z,47.00
2019-02-04T11:25:14.615Z,43.70
2019-02-04T11:27:41.861Z,45.00
2019-02-04T11:30:12.916Z,45.10
2019-02-04T11:32:40.288Z,43.90
2019-02-04T11:35:07.808Z,42.40
2019-02-04T11:37:34.984Z,41.70
2019-02-04T11:40:03.173Z,43.30
2019-02-04T11:42:30.570Z,40.90
2019-02-04T11:44:57.670Z,42.80
2019-02-04T11:47:24.887Z,39.30
2019-02-04T11:49:51.915Z,41.30
2019-02-04T11:52:19.539Z,42.30
2019-02-04T11:54:49.689Z,41.50
2019-02-04T11:57:16.911Z,41.00
2019-02-04T11:59:44.035Z,39.20
2019-02-04T12:02:11.144Z,41.80
2019-02-04T12:04:40.912Z,38.50
2019-02-04T12:07:08.029Z,36.30
2019-02-04T12:09:35.564Z,41.00
2019-02-04T12:12:02.980Z,39.40
2019-02-04T12:14:30.140Z,38.40
2019-02-04T12:16:59.102Z,37.70
2019-02-04T12:19:27.404Z,38.10
2019-02-04T12:21:54.500Z,34.50
2019-02-04T12:24:21.680Z,34.30
2019-02-04T12:26:48.775Z,34.50
2019-02-04T12:29:16.096Z,37.70
2019-02-04T12:31:43.309Z,39.60
2019-02-04T12:34:10.447Z,36.40
2019-02-04T12:36:37.605Z,38.20
2019-02-04T12:39:08.100Z,38.20
2019-02-04T12:41:36.642Z,38.50
2019-02-04T12:44:03.833Z,34.60
2019-02-04T12:46:30.990Z,37.10
2019-02-04T12:48:58.128Z,32.20
2019-02-04T12:51:33.262Z,34.40
2019-02-04T12:53:54.643Z,34.70
2019-02-04T12:56:21.984Z,32.90
2019-02-04T12:58:55.608Z,36.40
2019-02-04T13:01:18.132Z,34.20
2019-02-04T13:03:45.297Z,35.90
2019-02-04T13:06:12.416Z,35.10
2019-02-04T13:08:39.546Z,35.10
2019-02-04T13:11:06.764Z,34.60
2019-02-04T13:13:34.255Z,34.30
2019-02-04T13:16:01.344Z,33.30
2019-02-04T13:18:28.445Z,36.00
2019-02-04T13:20:55.656Z,35.10
2019-02-04T13:23:22.783Z,35.20
2019-02-04T13:25:49.897Z,35.00
2019-02-04T13:28:18.434Z,35.50
2019-02-04T13:30:45.582Z,35.50
2019-02-04T13:33:12.678Z,38.10
2019-02-04T13:35:39.821Z,37.80
2019-02-04T13:38:06.915Z,38.10
2019-02-04T13:40:34.023Z,34.80
2019-02-04T13:43:01.168Z,36.10
2019-02-04T13:45:28.556Z,32.40
2019-02-04T13:47:55.935Z,32.30
2019-02-04T13:50:23.076Z,35.50
2019-02-04T13:52:50.177Z,36.20
2019-02-04T13:55:24.654Z,33.50
2019-02-04T13:57:51.784Z,34.80
2019-02-04T14:00:19.251Z,35.10
2019-02-04T14:02:58.495Z,35.50
2019-02-04T14:05:15.743Z,37.80
2019-02-04T14:07:43.204Z,38.10
2019-02-04T14:10:17.475Z,35.70
2019-02-04T14:12:45.561Z,34.60
2019-02-04T14:15:13.576Z,36.10
2019-02-04T14:17:40.700Z,35.30
2019-02-04T14:20:09.153Z,37.50
2019-02-04T14:22:36.358Z,37.80
2019-02-04T14:25:03.835Z,35.90
2019-02-04T14:27:30.952Z,33.10
2019-02-04T14:29:58.121Z,36.40
2019-02-04T14:32:26.125Z,36.40
2019-02-04T14:34:54.688Z,34.60
2019-02-04T14:37:22.224Z,34.10
2019-02-04T14:39:49.385Z,32.80
2019-02-04T14:42:17.227Z,32.40
2019-02-04T14:45:06.954Z,35.10
2019-02-04T14:47:39.167Z,34.60
2019-02-04T14:50:29.235Z,36.10
2019-02-04T14:53:11.716Z,36.40
2019-02-04T14:55:44.004Z,37.00
2019-02-04T14:58:16.560Z,37.60
2019-02-04T15:01:02.248Z,36.80
2019-02-04T15:03:49.946Z,38.00
2019-02-04T15:06:36.824Z,38.00
2019-02-04T15:09:26.289Z,37.90
2019-02-04T15:12:01.395Z,37.70
2019-02-04T15:14:40.760Z,38.40
2019-02-04T15:17:18.904Z,37.80
2019-02-04T15:19:51.873Z,38.60
2019-02-04T15:22:33.492Z,37.90
2019-02-04T15:25:07.677Z,38.60
2019-02-04T15:27:46.364Z,38.80
2019-02-04T15:30:31.878Z,37.50
2019-02-04T15:33:18.681Z,37.90
2019-02-04T15:36:11.576Z,38.60
2019-02-04T15:39:10.248Z,38.60
2019-02-04T15:42:03.111Z,38.20
2019-02-04T15:44:49.799Z,38.30
2019-02-04T15:47:22.415Z,39.30
2019-02-04T15:50:07.620Z,39.00
2019-02-04T15:52:45.040Z,38.80
2019-02-04T15:55:05.855Z,39.70
2019-02-04T15:57:33.008Z,40.00
2019-02-04T16:00:00.189Z,40.00
2019-02-04T16:02:28.560Z,40.00
2019-02-04T16:04:55.705Z,40.30
2019-02-04T16:07:23.964Z,40.40
2019-02-04T16:09:51.369Z,40.30
2019-02-04T16:12:18.546Z,40.70
2019-02-04T16:14:45.663Z,40.70
2019-02-04T16:17:12.756Z,40.70
2019-02-04T16:19:39.936Z,40.40
2019-02-04T16:22:07.112Z,40.70
2019-02-04T16:24:34.291Z,41.00
2019-02-04T16:27:01.521Z,40.90
2019-02-04T16:29:28.985Z,41.10
2019-02-04T16:31:56.168Z,41.00
2019-02-04T16:34:24.096Z,41.10
2019-02-04T16:36:51.342Z,41.50
2019-02-04T16:39:18.495Z,41.70
2019-02-04T16:41:45.670Z,42.00
2019-02-04T16:44:13.098Z,41.80
2019-02-04T16:46:40.600Z,41.70
2019-02-04T16:49:09.813Z,41.90
2019-02-04T16:51:37.096Z,41.80
2019-02-04T16:54:04.248Z,41.80
2019-02-04T16:56:31.495Z,42.40
2019-02-04T16:58:58.779Z,42.40
2019-02-04T17:01:25.989Z,42.40
2019-02-04T17:03:54.593Z,42.50
2019-02-04T17:06:21.748Z,42.40
2019-02-04T17:08:48.985Z,42.50
2019-02-04T17:11:16.197Z,42.40
2019-02-04T17:13:43.356Z,42.40
2019-02-04T17:16:10.535Z,43.10
2019-02-04T17:18:37.851Z,42.30
2019-02-04T17:21:05.179Z,42.30
2019-02-04T17:23:32.298Z,42.30
2019-02-04T17:25:59.870Z,42.30
2019-02-04T17:28:27.223Z,42.50
2019-02-04T17:30:54.488Z,42.60
2019-02-04T17:33:21.605Z,42.40
2019-02-04T17:35:48.858Z,42.60
2019-02-04T17:38:16.028Z,42.40
2019-02-04T17:40:43.266Z,42.70
2019-02-04T17:43:10.512Z,43.00
2019-02-04T17:45:37.681Z,42.80
2019-02-04T17:48:05.268Z,43.00
2019-02-04T17:50:32.401Z,43.30
2019-02-04T17:52:59.504Z,43.50
2019-02-04T17:55:26.712Z,43.60
2019-02-04T17:57:54.249Z,43.90
2019-02-04T18:00:28.142Z,44.10
2019-02-04T18:02:55.335Z,44.00
2019-02-04T18:05:22.520Z,44.50
2019-02-04T18:07:53.214Z,43.80
2019-02-04T18:10:21.397Z,43.90
2019-02-04T18:12:48.827Z,44.00
2019-02-04T18:15:16.552Z,44.20
2019-02-04T18:17:46.160Z,44.30
2019-02-04T18:20:13.462Z,44.40
2019-02-04T18:22:41.863Z,44.40
2019-02-04T18:25:09.535Z,44.30
2019-02-04T18:27:36.672Z,44.40
2019-02-04T18:30:04.676Z,44.70
2019-02-04T18:32:31.830Z,44.80
2019-02-04T18:34:58.954Z,44.90
2019-02-04T18:37:26.462Z,45.00
2019-02-04T18:39:53.557Z,45.00
2019-02-04T18:42:20.668Z,45.20
2019-02-04T18:44:48.203Z,45.30
2019-02-04T18:47:15.616Z,45.30
2019-02-04T18:49:42.785Z,45.40
2019-02-04T18:52:09.984Z,45.60
2019-02-04T18:54:40.414Z,45.60
2019-02-04T18:57:07.636Z,45.90
2019-02-04T18:59:35.135Z,45.90
2019-02-04T19:02:02.304Z,46.00
2019-02-04T19:04:29.531Z,46.10
2019-02-04T19:09:42.539Z,45.80
2019-02-04T19:12:09.947Z,45.50
2019-02-04T19:14:37.139Z,45.40
2019-02-04T19:17:04.221Z,45.60
2019-02-04T19:19:31.451Z,45.60
2019-02-04T19:21:58.582Z,45.60
2019-02-04T19:24:26.087Z,45.70
2019-02-04T19:26:56.262Z,45.80
2019-02-04T19:29:26.297Z,45.70
2019-02-04T19:31:53.513Z,46.10
2019-02-04T19:34:20.688Z,46.00
2019-02-04T19:36:47.850Z,46.30
2019-02-04T19:39:15.207Z,46.40
2019-02-04T19:41:42.496Z,46.10
2019-02-04T19:44:09.685Z,46.20
2019-02-04T19:46:37.022Z,46.10
2019-02-04T19:49:04.237Z,46.40
2019-02-04T19:51:32.693Z,46.40
2019-02-04T19:53:59.856Z,46.50
2019-02-04T19:56:27.750Z,46.70
2019-02-04T19:58:55.020Z,46.70
2019-02-04T20:01:22.590Z,46.70
2019-02-04T20:03:50.841Z,46.80
2019-02-04T20:06:18.020Z,47.10
2019-02-04T20:08:45.396Z,47.20
2019-02-04T20:11:12.679Z,46.80
2019-02-04T20:13:40.073Z,46.70
2019-02-04T20:16:07.199Z,46.70
2019-02-04T20:18:34.370Z,46.80
2019-02-04T20:21:03.601Z,46.90
2019-02-04T20:23:30.941Z,47.10
2019-02-04T20:25:58.055Z,47.20
2019-02-04T20:28:26.037Z,47.40
2019-02-04T20:30:54.382Z,47.30
2019-02-04T20:33:21.714Z,46.90
2019-02-04T20:35:49.054Z,46.70
2019-02-04T20:38:16.490Z,46.80
2019-02-04T20:40:44.133Z,46.80
2019-02-04T20:43:11.457Z,46.80
2019-02-04T20:45:38.736Z,46.80
2019-02-04T20:48:07.305Z,46.90
2019-02-04T20:50:35.574Z,47.00
2019-02-04T20:53:03.157Z,47.00
2019-02-04T20:55:30.669Z,47.10
2019-02-04T20:57:58.233Z,47.30
2019-02-04T21:00:26.342Z,47.60
2019-02-04T21:02:53.733Z,47.50
2019-02-04T21:05:20.940Z,47.50
2019-02-04T21:07:48.163Z,47.50
2019-02-04T21:10:16.615Z,47.50
2019-02-04T21:12:43.752Z,47.50
2019-02-04T21:15:13.170Z,47.50
2019-02-04T21:17:40.421Z,47.50
2019-02-04T21:20:09.774Z,47.50
2019-02-04T21:22:37.011Z,47.60
2019-02-04T21:25:05.628Z,47.70
2019-02-04T21:27:32.855Z,47.80
2019-02-04T21:30:00.344Z,47.80
2019-02-04T21:32:29.010Z,47.90
2019-02-04T21:34:57.282Z,47.90
2019-02-04T21:37:24.376Z,47.90
2019-02-04T21:39:53.843Z,47.90
2019-02-04T21:42:21.061Z,48.00
2019-02-04T21:44:50.125Z,48.20
2019-02-04T21:47:19.982Z,48.20
2019-02-04T21:49:47.172Z,48.20
2019-02-04T21:52:14.530Z,48.20
2019-02-04T21:54:41.656Z,48.20
2019-02-04T21:57:08.839Z,48.30
2019-02-04T21:59:36.084Z,48.40
2019-02-04T22:02:03.363Z,48.40
2019-02-04T22:04:30.475Z,48.40
2019-02-04T22:06:57.632Z,48.40
2019-02-04T22:09:25.381Z,48.30
2019-02-04T22:11:52.877Z,48.40
2019-02-04T22:14:20.180Z,48.40
2019-02-04T22:16:47.327Z,48.50
2019-02-04T22:19:14.537Z,48.50
2019-02-04T22:21:41.678Z,48.70
2019-02-04T22:24:09.127Z,48.70
2019-02-04T22:26:39.027Z,48.70
2019-02-04T22:29:06.444Z,48.80
2019-02-04T22:31:34.732Z,49.60
2019-02-04T22:34:03.500Z,48.80
2019-02-04T22:36:31.011Z,48.80
2019-02-04T22:38:58.381Z,49.00
2019-02-04T22:41:25.961Z,49.00
2019-02-04T22:43:56.005Z,48.90
2019-02-04T22:46:25.609Z,49.10
2019-02-04T22:48:52.718Z,49.10
2019-02-04T22:51:19.948Z,49.10
2019-02-04T22:53:47.064Z,49.30
2019-02-04T22:56:14.228Z,49.30
2019-02-04T22:58:41.544Z,49.60
2019-02-04T23:01:21.315Z,49.70
2019-02-04T23:03:48.841Z,49.70
2019-02-04T23:06:16.037Z,49.60
2019-02-04T23:08:45.112Z,49.60
2019-02-04T23:11:13.551Z,49.70
2019-02-04T23:13:40.680Z,49.80
2019-02-04T23:16:07.820Z,49.90
2019-02-04T23:18:35.306Z,49.90
2019-02-04T23:21:02.404Z,50.00
2019-02-04T23:23:29.501Z,50.20
2019-02-04T23:25:56.609Z,50.10
2019-02-04T23:28:23.712Z,50.20
2019-02-04T23:30:50.887Z,50.20
2019-02-04T23:33:18.003Z,50.40
2019-02-04T23:35:45.096Z,50.40
2019-02-04T23:38:12.222Z,50.40
2019-02-04T23:40:39.344Z,50.40
2019-02-04T23:43:06.409Z,50.50
2019-02-04T23:45:33.574Z,50.60
2019-02-04T23:48:01.223Z,50.60
2019-02-04T23:50:28.351Z,50.80
2019-02-04T23:52:55.492Z,50.80
2019-02-04T23:55:22.712Z,50.50
2019-02-04T23:57:49.804Z,50.70
